sensor_id;sensor_type;location;lat;lon;timestamp;temperature;humidity
23114;DHT22;11726;50.122;8.832;2023-12-14T00:02:11;6.40;99.90
23114;DHT22;11726;50.122;8.832;2023-12-14T00:04:38;6.30;99.90
23114;DHT22;11726;50.122;8.832;2023-12-14T00:07:05;6.20;99.90
23114;DHT22;11726;50.122;8.832;2023-12-14T00:09:32;6.20;99.90
23114;DHT22;11726;50.122;8.832;2023-12-14T00:11:59;6.30;99.90
23114;DHT22;11726;50.122;8.832;2023-12-14T00:14:25;6.30;99.90
23114;DHT22;11726;50.122;8.832;2023-12-14T00:16:52;6.20;99.90
23114;DHT22;11726;50.122;8.832;2023-12-14T00:19:19;6.20;99.90
23114;DHT22;11726;50.122;8.832;2023-12-14T00:21:46;6.10;99.90
23114;DHT22;11726;50.122;8.832;2023-12-14T00:24:12;6.20;99.90
23114;DHT22;11726;50.122;8.832;2023-12-14T00:26:39;6.20;99.90
23114;DHT22;11726;50.122;8.832;2023-12-14T00:29:05;6.10;99.90
23114;DHT22;11726;50.122;8.832;2023-12-14T00:31:32;6.10;99.90
23114;DHT22;11726;50.122;8.832;2023-12-14T00:33:59;6.00;99.90
23114;DHT22;11726;50.122;8.832;2023-12-14T00:36:26;6.00;99.90
23114;DHT22;11726;50.122;8.832;2023-12-14T00:38:53;6.00;99.90
23114;DHT22;11726;50.122;8.832;2023-12-14T00:41:22;6.00;99.90
23114;DHT22;11726;50.122;8.832;2023-12-14T00:43:48;6.00;99.90
23114;DHT22;11726;50.122;8.832;2023-12-14T00:46:15;6.00;99.90
23114;DHT22;11726;50.122;8.832;2023-12-14T00:48:42;6.10;99.90
23114;DHT22;11726;50.122;8.832;2023-12-14T00:51:09;6.10;99.90
23114;DHT22;11726;50.122;8.832;2023-12-14T00:53:35;6.20;99.90
23114;DHT22;11726;50.122;8.832;2023-12-14T00:56:02;6.20;99.90
23114;DHT22;11726;50.122;8.832;2023-12-14T00:58:29;6.20;99.90
23114;DHT22;11726;50.122;8.832;2023-12-14T01:00:56;6.20;99.90
23114;DHT22;11726;50.122;8.832;2023-12-14T01:03:22;6.20;99.90
23114;DHT22;11726;50.122;8.832;2023-12-14T01:05:49;6.30;99.90
23114;DHT22;11726;50.122;8.832;2023-12-14T01:08:16;6.30;99.90
23114;DHT22;11726;50.122;8.832;2023-12-14T01:10:43;6.40;99.90
23114;DHT22;11726;50.122;8.832;2023-12-14T01:13:10;6.40;99.90
23114;DHT22;11726;50.122;8.832;2023-12-14T01:15:36;6.40;99.90
23114;DHT22;11726;50.122;8.832;2023-12-14T01:18:03;6.30;99.90
23114;DHT22;11726;50.122;8.832;2023-12-14T01:20:30;6.30;99.90
23114;DHT22;11726;50.122;8.832;2023-12-14T01:22:56;6.30;99.90
23114;DHT22;11726;50.122;8.832;2023-12-14T01:25:23;6.40;99.90
23114;DHT22;11726;50.122;8.832;2023-12-14T01:27:50;6.30;99.90
23114;DHT22;11726;50.122;8.832;2023-12-14T01:30:16;6.40;99.90
23114;DHT22;11726;50.122;8.832;2023-12-14T01:32:43;6.30;99.90
23114;DHT22;11726;50.122;8.832;2023-12-14T01:35:10;6.40;99.90
23114;DHT22;11726;50.122;8.832;2023-12-14T01:37:36;6.40;99.90
23114;DHT22;11726;50.122;8.832;2023-12-14T01:40:04;6.50;99.90
23114;DHT22;11726;50.122;8.832;2023-12-14T01:42:31;6.50;99.90
23114;DHT22;11726;50.122;8.832;2023-12-14T01:44:58;6.50;99.90
23114;DHT22;11726;50.122;8.832;2023-12-14T01:47:25;6.40;99.90
23114;DHT22;11726;50.122;8.832;2023-12-14T01:49:52;6.40;99.90
23114;DHT22;11726;50.122;8.832;2023-12-14T01:52:18;6.30;99.90
23114;DHT22;11726;50.122;8.832;2023-12-14T01:54:45;6.30;99.90
23114;DHT22;11726;50.122;8.832;2023-12-14T01:57:12;6.40;99.90
23114;DHT22;11726;50.122;8.832;2023-12-14T01:59:38;6.30;99.90
23114;DHT22;11726;50.122;8.832;2023-12-14T02:02:05;6.30;99.90
23114;DHT22;11726;50.122;8.832;2023-12-14T02:04:32;6.30;99.90
23114;DHT22;11726;50.122;8.832;2023-12-14T02:06:59;6.30;99.90
23114;DHT22;11726;50.122;8.832;2023-12-14T02:09:26;6.20;99.90
23114;DHT22;11726;50.122;8.832;2023-12-14T02:11:53;6.20;99.90
23114;DHT22;11726;50.122;8.832;2023-12-14T02:14:21;6.30;99.90
23114;DHT22;11726;50.122;8.832;2023-12-14T02:16:48;6.20;99.90
23114;DHT22;11726;50.122;8.832;2023-12-14T02:19:14;6.10;99.90
23114;DHT22;11726;50.122;8.832;2023-12-14T02:21:42;6.20;99.90
23114;DHT22;11726;50.122;8.832;2023-12-14T02:24:08;6.20;99.90
23114;DHT22;11726;50.122;8.832;2023-12-14T02:26:35;6.20;99.90
23114;DHT22;11726;50.122;8.832;2023-12-14T02:29:02;6.20;99.90
23114;DHT22;11726;50.122;8.832;2023-12-14T02:31:28;6.10;99.90
23114;DHT22;11726;50.122;8.832;2023-12-14T02:33:55;6.10;99.90
23114;DHT22;11726;50.122;8.832;2023-12-14T02:36:22;6.10;99.90
23114;DHT22;11726;50.122;8.832;2023-12-14T02:38:49;6.10;99.90
23114;DHT22;11726;50.122;8.832;2023-12-14T02:41:16;6.10;99.90
23114;DHT22;11726;50.122;8.832;2023-12-14T02:43:42;6.10;99.90
23114;DHT22;11726;50.122;8.832;2023-12-14T02:46:09;6.10;99.90
23114;DHT22;11726;50.122;8.832;2023-12-14T02:48:41;6.10;99.90
23114;DHT22;11726;50.122;8.832;2023-12-14T02:51:12;6.10;99.90
23114;DHT22;11726;50.122;8.832;2023-12-14T02:53:39;6.10;99.90
23114;DHT22;11726;50.122;8.832;2023-12-14T02:56:06;6.00;99.90
23114;DHT22;11726;50.122;8.832;2023-12-14T02:58:33;6.10;99.90
23114;DHT22;11726;50.122;8.832;2023-12-14T03:00:59;6.10;99.90
23114;DHT22;11726;50.122;8.832;2023-12-14T03:03:26;6.00;99.90
23114;DHT22;11726;50.122;8.832;2023-12-14T03:05:54;6.00;99.90
23114;DHT22;11726;50.122;8.832;2023-12-14T03:08:21;6.00;99.90
23114;DHT22;11726;50.122;8.832;2023-12-14T03:10:48;6.00;99.90
23114;DHT22;11726;50.122;8.832;2023-12-14T03:13:14;6.00;99.90
23114;DHT22;11726;50.122;8.832;2023-12-14T03:15:42;6.00;99.90
23114;DHT22;11726;50.122;8.832;2023-12-14T03:18:09;6.00;99.90
23114;DHT22;11726;50.122;8.832;2023-12-14T03:20:38;6.00;99.90
23114;DHT22;11726;50.122;8.832;2023-12-14T03:23:05;5.90;99.90
23114;DHT22;11726;50.122;8.832;2023-12-14T03:25:31;6.00;99.90
23114;DHT22;11726;50.122;8.832;2023-12-14T03:27:58;6.00;99.90
23114;DHT22;11726;50.122;8.832;2023-12-14T03:30:25;5.90;99.90
23114;DHT22;11726;50.122;8.832;2023-12-14T03:32:53;6.00;99.90
23114;DHT22;11726;50.122;8.832;2023-12-14T03:35:20;5.90;99.90
23114;DHT22;11726;50.122;8.832;2023-12-14T03:37:46;5.90;99.90
23114;DHT22;11726;50.122;8.832;2023-12-14T03:40:13;5.90;99.90
23114;DHT22;11726;50.122;8.832;2023-12-14T03:42:40;5.80;99.90
23114;DHT22;11726;50.122;8.832;2023-12-14T03:45:07;5.80;99.90
23114;DHT22;11726;50.122;8.832;2023-12-14T03:47:34;5.90;99.90
23114;DHT22;11726;50.122;8.832;2023-12-14T03:50:00;5.90;99.90
23114;DHT22;11726;50.122;8.832;2023-12-14T03:52:27;5.90;99.90
23114;DHT22;11726;50.122;8.832;2023-12-14T03:54:58;5.90;99.90
23114;DHT22;11726;50.122;8.832;2023-12-14T03:57:24;5.90;99.90
23114;DHT22;11726;50.122;8.832;2023-12-14T03:59:51;5.90;99.90
23114;DHT22;11726;50.122;8.832;2023-12-14T04:02:17;5.80;99.90
23114;DHT22;11726;50.122;8.832;2023-12-14T04:04:44;5.90;99.90
23114;DHT22;11726;50.122;8.832;2023-12-14T04:07:13;5.80;99.90
23114;DHT22;11726;50.122;8.832;2023-12-14T04:09:40;5.90;99.90
23114;DHT22;11726;50.122;8.832;2023-12-14T04:12:07;5.80;99.90
23114;DHT22;11726;50.122;8.832;2023-12-14T04:14:33;5.80;99.90
23114;DHT22;11726;50.122;8.832;2023-12-14T04:17:00;5.80;99.90
23114;DHT22;11726;50.122;8.832;2023-12-14T04:19:27;5.80;99.90
23114;DHT22;11726;50.122;8.832;2023-12-14T04:21:53;5.80;99.90
23114;DHT22;11726;50.122;8.832;2023-12-14T04:24:20;5.90;99.90
23114;DHT22;11726;50.122;8.832;2023-12-14T04:26:48;5.90;99.90
23114;DHT22;11726;50.122;8.832;2023-12-14T04:29:15;5.80;99.90
23114;DHT22;11726;50.122;8.832;2023-12-14T04:31:41;5.80;99.90
23114;DHT22;11726;50.122;8.832;2023-12-14T04:34:08;5.80;99.90
23114;DHT22;11726;50.122;8.832;2023-12-14T04:36:38;5.80;99.90
23114;DHT22;11726;50.122;8.832;2023-12-14T04:39:05;5.90;99.90
23114;DHT22;11726;50.122;8.832;2023-12-14T04:41:31;5.90;99.90
23114;DHT22;11726;50.122;8.832;2023-12-14T04:43:58;6.00;99.90
23114;DHT22;11726;50.122;8.832;2023-12-14T04:46:25;6.00;99.90
23114;DHT22;11726;50.122;8.832;2023-12-14T04:48:51;6.00;99.90
23114;DHT22;11726;50.122;8.832;2023-12-14T04:51:18;6.10;99.90
23114;DHT22;11726;50.122;8.832;2023-12-14T04:53:45;6.20;99.90
23114;DHT22;11726;50.122;8.832;2023-12-14T04:56:12;6.20;99.90
23114;DHT22;11726;50.122;8.832;2023-12-14T04:58:40;6.20;99.90
23114;DHT22;11726;50.122;8.832;2023-12-14T05:01:06;6.20;99.90
23114;DHT22;11726;50.122;8.832;2023-12-14T05:03:35;6.10;99.90
23114;DHT22;11726;50.122;8.832;2023-12-14T05:06:01;6.10;99.90
23114;DHT22;11726;50.122;8.832;2023-12-14T05:08:28;6.20;99.90
23114;DHT22;11726;50.122;8.832;2023-12-14T05:10:55;6.10;99.90
23114;DHT22;11726;50.122;8.832;2023-12-14T05:13:22;6.10;99.90
23114;DHT22;11726;50.122;8.832;2023-12-14T05:15:48;6.10;99.90
23114;DHT22;11726;50.122;8.832;2023-12-14T05:18:15;6.00;99.90
23114;DHT22;11726;50.122;8.832;2023-12-14T05:20:42;6.10;99.90
23114;DHT22;11726;50.122;8.832;2023-12-14T05:23:09;6.10;99.90
23114;DHT22;11726;50.122;8.832;2023-12-14T05:25:35;6.10;99.90
23114;DHT22;11726;50.122;8.832;2023-12-14T05:28:02;6.10;99.90
23114;DHT22;11726;50.122;8.832;2023-12-14T05:30:29;6.20;99.90
23114;DHT22;11726;50.122;8.832;2023-12-14T05:32:56;6.20;99.90
23114;DHT22;11726;50.122;8.832;2023-12-14T05:35:23;6.20;99.90
23114;DHT22;11726;50.122;8.832;2023-12-14T05:37:49;6.10;99.90
23114;DHT22;11726;50.122;8.832;2023-12-14T05:40:16;6.10;99.90
23114;DHT22;11726;50.122;8.832;2023-12-14T05:42:43;6.00;99.90
23114;DHT22;11726;50.122;8.832;2023-12-14T05:45:10;6.10;99.90
23114;DHT22;11726;50.122;8.832;2023-12-14T05:47:38;6.10;99.90
23114;DHT22;11726;50.122;8.832;2023-12-14T05:50:06;6.10;99.90
23114;DHT22;11726;50.122;8.832;2023-12-14T05:52:36;6.20;99.90
23114;DHT22;11726;50.122;8.832;2023-12-14T05:55:04;6.10;99.90
23114;DHT22;11726;50.122;8.832;2023-12-14T05:57:33;6.00;99.90
23114;DHT22;11726;50.122;8.832;2023-12-14T06:00:00;5.90;99.90
23114;DHT22;11726;50.122;8.832;2023-12-14T06:02:27;5.90;99.90
23114;DHT22;11726;50.122;8.832;2023-12-14T06:04:53;5.90;99.90
23114;DHT22;11726;50.122;8.832;2023-12-14T06:07:20;5.90;99.90
23114;DHT22;11726;50.122;8.832;2023-12-14T06:09:47;5.90;99.90
23114;DHT22;11726;50.122;8.832;2023-12-14T06:12:13;5.80;99.90
23114;DHT22;11726;50.122;8.832;2023-12-14T06:14:40;5.90;99.90
23114;DHT22;11726;50.122;8.832;2023-12-14T06:17:07;5.80;99.90
23114;DHT22;11726;50.122;8.832;2023-12-14T06:19:33;5.80;99.90
23114;DHT22;11726;50.122;8.832;2023-12-14T06:22:00;5.80;99.90
23114;DHT22;11726;50.122;8.832;2023-12-14T06:24:27;5.80;99.90
23114;DHT22;11726;50.122;8.832;2023-12-14T06:26:54;5.80;99.90
23114;DHT22;11726;50.122;8.832;2023-12-14T06:29:20;5.80;99.90
23114;DHT22;11726;50.122;8.832;2023-12-14T06:31:47;5.80;99.90
23114;DHT22;11726;50.122;8.832;2023-12-14T06:34:14;5.80;99.90
23114;DHT22;11726;50.122;8.832;2023-12-14T06:36:47;5.80;99.90
23114;DHT22;11726;50.122;8.832;2023-12-14T06:39:13;5.80;99.90
23114;DHT22;11726;50.122;8.832;2023-12-14T06:41:42;5.80;99.90
23114;DHT22;11726;50.122;8.832;2023-12-14T06:44:08;5.80;99.90
23114;DHT22;11726;50.122;8.832;2023-12-14T06:46:36;5.90;99.90
23114;DHT22;11726;50.122;8.832;2023-12-14T06:49:03;5.90;99.90
23114;DHT22;11726;50.122;8.832;2023-12-14T06:51:29;5.80;99.90
23114;DHT22;11726;50.122;8.832;2023-12-14T06:53:56;5.90;99.90
23114;DHT22;11726;50.122;8.832;2023-12-14T06:56:23;5.90;99.90
23114;DHT22;11726;50.122;8.832;2023-12-14T06:58:49;5.90;99.90
23114;DHT22;11726;50.122;8.832;2023-12-14T07:01:17;5.90;99.90
23114;DHT22;11726;50.122;8.832;2023-12-14T07:03:46;5.90;99.90
23114;DHT22;11726;50.122;8.832;2023-12-14T07:06:15;6.00;99.90
23114;DHT22;11726;50.122;8.832;2023-12-14T07:08:42;6.00;99.90
23114;DHT22;11726;50.122;8.832;2023-12-14T07:11:10;6.00;99.90
23114;DHT22;11726;50.122;8.832;2023-12-14T07:13:37;6.00;99.90
23114;DHT22;11726;50.122;8.832;2023-12-14T07:16:09;6.10;99.90
23114;DHT22;11726;50.122;8.832;2023-12-14T07:18:37;6.00;99.90
23114;DHT22;11726;50.122;8.832;2023-12-14T07:21:04;6.10;99.90
23114;DHT22;11726;50.122;8.832;2023-12-14T07:23:31;6.10;99.90
23114;DHT22;11726;50.122;8.832;2023-12-14T07:25:58;6.00;99.90
23114;DHT22;11726;50.122;8.832;2023-12-14T07:28:29;6.10;99.90
23114;DHT22;11726;50.122;8.832;2023-12-14T07:30:55;6.10;99.90
23114;DHT22;11726;50.122;8.832;2023-12-14T07:33:22;6.10;99.90
23114;DHT22;11726;50.122;8.832;2023-12-14T07:35:49;6.10;99.90
23114;DHT22;11726;50.122;8.832;2023-12-14T07:38:16;6.10;99.90
23114;DHT22;11726;50.122;8.832;2023-12-14T07:40:42;6.10;99.90
23114;DHT22;11726;50.122;8.832;2023-12-14T07:43:09;6.10;99.90
23114;DHT22;11726;50.122;8.832;2023-12-14T07:45:36;6.10;99.90
23114;DHT22;11726;50.122;8.832;2023-12-14T07:48:03;6.10;99.90
23114;DHT22;11726;50.122;8.832;2023-12-14T07:50:33;6.10;99.90
23114;DHT22;11726;50.122;8.832;2023-12-14T07:52:59;6.10;99.90
23114;DHT22;11726;50.122;8.832;2023-12-14T07:55:26;6.10;99.90
23114;DHT22;11726;50.122;8.832;2023-12-14T07:57:53;6.10;99.90
23114;DHT22;11726;50.122;8.832;2023-12-14T08:00:19;6.10;99.90
23114;DHT22;11726;50.122;8.832;2023-12-14T08:02:46;6.10;99.90
23114;DHT22;11726;50.122;8.832;2023-12-14T08:05:13;6.20;99.90
23114;DHT22;11726;50.122;8.832;2023-12-14T08:07:40;6.20;99.90
23114;DHT22;11726;50.122;8.832;2023-12-14T08:10:07;6.20;99.90
23114;DHT22;11726;50.122;8.832;2023-12-14T08:12:34;6.10;99.90
23114;DHT22;11726;50.122;8.832;2023-12-14T08:15:01;6.20;99.90
23114;DHT22;11726;50.122;8.832;2023-12-14T08:17:28;6.20;99.90
23114;DHT22;11726;50.122;8.832;2023-12-14T08:19:55;6.20;99.90
23114;DHT22;11726;50.122;8.832;2023-12-14T08:22:22;6.30;99.90
23114;DHT22;11726;50.122;8.832;2023-12-14T08:24:48;6.30;99.90
23114;DHT22;11726;50.122;8.832;2023-12-14T08:27:16;6.30;99.90
23114;DHT22;11726;50.122;8.832;2023-12-14T08:29:43;6.30;99.90
23114;DHT22;11726;50.122;8.832;2023-12-14T08:32:11;6.30;99.90
23114;DHT22;11726;50.122;8.832;2023-12-14T08:34:40;6.40;99.90
23114;DHT22;11726;50.122;8.832;2023-12-14T08:37:07;6.40;99.90
23114;DHT22;11726;50.122;8.832;2023-12-14T08:39:33;6.40;99.90
23114;DHT22;11726;50.122;8.832;2023-12-14T08:42:00;6.40;99.90
23114;DHT22;11726;50.122;8.832;2023-12-14T08:44:27;6.40;99.90
23114;DHT22;11726;50.122;8.832;2023-12-14T08:46:54;6.50;99.90
23114;DHT22;11726;50.122;8.832;2023-12-14T08:49:23;6.50;99.90
23114;DHT22;11726;50.122;8.832;2023-12-14T08:51:52;6.60;99.90
23114;DHT22;11726;50.122;8.832;2023-12-14T08:54:19;6.50;99.90
23114;DHT22;11726;50.122;8.832;2023-12-14T08:56:45;6.50;99.90
23114;DHT22;11726;50.122;8.832;2023-12-14T08:59:12;6.50;99.90
23114;DHT22;11726;50.122;8.832;2023-12-14T09:01:39;6.50;99.90
23114;DHT22;11726;50.122;8.832;2023-12-14T09:04:06;6.60;99.90
23114;DHT22;11726;50.122;8.832;2023-12-14T09:06:33;6.70;99.90
23114;DHT22;11726;50.122;8.832;2023-12-14T09:09:00;6.70;99.90
23114;DHT22;11726;50.122;8.832;2023-12-14T09:11:27;6.70;99.90
23114;DHT22;11726;50.122;8.832;2023-12-14T09:13:53;6.80;99.90
23114;DHT22;11726;50.122;8.832;2023-12-14T09:16:20;6.70;99.90
23114;DHT22;11726;50.122;8.832;2023-12-14T09:18:47;6.80;99.90
23114;DHT22;11726;50.122;8.832;2023-12-14T09:21:14;6.70;99.90
23114;DHT22;11726;50.122;8.832;2023-12-14T09:23:41;6.70;99.90
23114;DHT22;11726;50.122;8.832;2023-12-14T09:26:08;6.80;99.90
23114;DHT22;11726;50.122;8.832;2023-12-14T09:28:34;6.80;99.90
23114;DHT22;11726;50.122;8.832;2023-12-14T09:31:01;6.80;99.90
23114;DHT22;11726;50.122;8.832;2023-12-14T09:33:31;6.80;99.90
23114;DHT22;11726;50.122;8.832;2023-12-14T09:35:58;6.80;99.90
23114;DHT22;11726;50.122;8.832;2023-12-14T09:38:24;6.80;99.90
23114;DHT22;11726;50.122;8.832;2023-12-14T09:40:51;6.80;99.90
23114;DHT22;11726;50.122;8.832;2023-12-14T09:43:18;6.80;99.90
23114;DHT22;11726;50.122;8.832;2023-12-14T09:45:45;6.80;99.90
23114;DHT22;11726;50.122;8.832;2023-12-14T09:48:13;6.80;99.90
23114;DHT22;11726;50.122;8.832;2023-12-14T09:50:41;6.80;99.90
23114;DHT22;11726;50.122;8.832;2023-12-14T09:53:08;6.80;99.90
23114;DHT22;11726;50.122;8.832;2023-12-14T09:55:35;6.80;99.90
23114;DHT22;11726;50.122;8.832;2023-12-14T09:58:02;6.80;99.90
23114;DHT22;11726;50.122;8.832;2023-12-14T10:00:40;6.80;99.90
23114;DHT22;11726;50.122;8.832;2023-12-14T10:03:25;6.80;99.90
23114;DHT22;11726;50.122;8.832;2023-12-14T10:05:54;6.90;99.90
23114;DHT22;11726;50.122;8.832;2023-12-14T10:08:22;6.90;99.90
23114;DHT22;11726;50.122;8.832;2023-12-14T10:10:51;6.90;99.90
23114;DHT22;11726;50.122;8.832;2023-12-14T10:13:20;6.90;99.90
23114;DHT22;11726;50.122;8.832;2023-12-14T10:15:48;6.90;99.90
23114;DHT22;11726;50.122;8.832;2023-12-14T10:18:22;6.90;99.90
23114;DHT22;11726;50.122;8.832;2023-12-14T10:20:53;7.00;99.90
23114;DHT22;11726;50.122;8.832;2023-12-14T10:23:20;7.00;99.90
23114;DHT22;11726;50.122;8.832;2023-12-14T10:25:48;7.10;99.90
23114;DHT22;11726;50.122;8.832;2023-12-14T10:28:14;7.10;99.90
23114;DHT22;11726;50.122;8.832;2023-12-14T10:30:41;7.10;99.90
23114;DHT22;11726;50.122;8.832;2023-12-14T10:33:08;7.20;99.90
23114;DHT22;11726;50.122;8.832;2023-12-14T10:35:35;7.20;99.90
23114;DHT22;11726;50.122;8.832;2023-12-14T10:38:04;7.20;99.90
23114;DHT22;11726;50.122;8.832;2023-12-14T10:40:35;7.20;99.90
23114;DHT22;11726;50.122;8.832;2023-12-14T10:43:06;7.20;99.90
23114;DHT22;11726;50.122;8.832;2023-12-14T10:45:34;7.30;99.90
23114;DHT22;11726;50.122;8.832;2023-12-14T10:48:01;7.20;99.90
23114;DHT22;11726;50.122;8.832;2023-12-14T10:50:30;7.20;99.90
23114;DHT22;11726;50.122;8.832;2023-12-14T10:52:58;7.30;99.90
23114;DHT22;11726;50.122;8.832;2023-12-14T10:55:33;7.40;99.90
23114;DHT22;11726;50.122;8.832;2023-12-14T10:58:00;7.40;99.90
23114;DHT22;11726;50.122;8.832;2023-12-14T11:00:31;7.40;99.90
23114;DHT22;11726;50.122;8.832;2023-12-14T11:02:59;7.40;99.90
23114;DHT22;11726;50.122;8.832;2023-12-14T11:05:27;7.50;99.90
23114;DHT22;11726;50.122;8.832;2023-12-14T11:08:03;7.50;99.90
23114;DHT22;11726;50.122;8.832;2023-12-14T11:10:41;7.50;99.90
23114;DHT22;11726;50.122;8.832;2023-12-14T11:13:10;7.80;99.90
23114;DHT22;11726;50.122;8.832;2023-12-14T11:15:50;7.80;99.90
23114;DHT22;11726;50.122;8.832;2023-12-14T11:18:21;7.80;99.90
23114;DHT22;11726;50.122;8.832;2023-12-14T11:20:59;7.90;99.90
23114;DHT22;11726;50.122;8.832;2023-12-14T11:23:31;7.80;99.90
23114;DHT22;11726;50.122;8.832;2023-12-14T11:26:01;7.90;99.90
23114;DHT22;11726;50.122;8.832;2023-12-14T11:28:34;7.90;99.90
23114;DHT22;11726;50.122;8.832;2023-12-14T11:31:01;7.90;99.90
23114;DHT22;11726;50.122;8.832;2023-12-14T11:33:29;7.90;99.90
23114;DHT22;11726;50.122;8.832;2023-12-14T11:35:56;8.00;99.90
23114;DHT22;11726;50.122;8.832;2023-12-14T11:38:24;7.90;99.90
23114;DHT22;11726;50.122;8.832;2023-12-14T11:40:51;8.00;99.90
23114;DHT22;11726;50.122;8.832;2023-12-14T11:43:18;8.10;99.90
23114;DHT22;11726;50.122;8.832;2023-12-14T11:45:48;8.10;99.90
23114;DHT22;11726;50.122;8.832;2023-12-14T11:48:15;8.10;99.90
23114;DHT22;11726;50.122;8.832;2023-12-14T11:50:43;8.20;99.90
23114;DHT22;11726;50.122;8.832;2023-12-14T11:53:11;8.20;99.90
23114;DHT22;11726;50.122;8.832;2023-12-14T11:55:40;8.20;99.90
23114;DHT22;11726;50.122;8.832;2023-12-14T11:58:08;8.30;99.90
23114;DHT22;11726;50.122;8.832;2023-12-14T12:00:35;8.30;99.90
23114;DHT22;11726;50.122;8.832;2023-12-14T12:03:13;8.40;99.90
23114;DHT22;11726;50.122;8.832;2023-12-14T12:08:16;8.40;99.90
23114;DHT22;11726;50.122;8.832;2023-12-14T12:10:43;8.40;99.90
23114;DHT22;11726;50.122;8.832;2023-12-14T12:13:19;8.40;99.90
23114;DHT22;11726;50.122;8.832;2023-12-14T12:15:47;8.40;99.90
23114;DHT22;11726;50.122;8.832;2023-12-14T12:18:15;8.50;99.90
23114;DHT22;11726;50.122;8.832;2023-12-14T12:20:43;8.50;99.90
23114;DHT22;11726;50.122;8.832;2023-12-14T12:23:10;8.50;99.90
23114;DHT22;11726;50.122;8.832;2023-12-14T12:25:37;8.50;99.90
23114;DHT22;11726;50.122;8.832;2023-12-14T12:28:04;8.50;99.90
23114;DHT22;11726;50.122;8.832;2023-12-14T12:30:33;8.60;99.90
23114;DHT22;11726;50.122;8.832;2023-12-14T12:33:06;8.60;99.90
23114;DHT22;11726;50.122;8.832;2023-12-14T12:35:33;8.70;99.90
23114;DHT22;11726;50.122;8.832;2023-12-14T12:38:03;8.70;99.90
23114;DHT22;11726;50.122;8.832;2023-12-14T12:40:30;8.70;99.90
23114;DHT22;11726;50.122;8.832;2023-12-14T12:42:58;8.70;99.90
23114;DHT22;11726;50.122;8.832;2023-12-14T12:45:24;8.60;99.90
23114;DHT22;11726;50.122;8.832;2023-12-14T12:47:55;8.60;99.90
23114;DHT22;11726;50.122;8.832;2023-12-14T12:50:22;8.60;99.90
23114;DHT22;11726;50.122;8.832;2023-12-14T12:52:48;8.50;99.90
23114;DHT22;11726;50.122;8.832;2023-12-14T12:55:16;8.60;99.90
23114;DHT22;11726;50.122;8.832;2023-12-14T12:57:43;8.60;99.90
23114;DHT22;11726;50.122;8.832;2023-12-14T13:00:10;8.60;99.90
23114;DHT22;11726;50.122;8.832;2023-12-14T13:02:41;8.60;99.90
23114;DHT22;11726;50.122;8.832;2023-12-14T13:05:09;8.60;99.90
23114;DHT22;11726;50.122;8.832;2023-12-14T13:07:44;8.60;99.90
23114;DHT22;11726;50.122;8.832;2023-12-14T13:10:12;8.70;99.90
23114;DHT22;11726;50.122;8.832;2023-12-14T13:12:55;8.70;99.90
23114;DHT22;11726;50.122;8.832;2023-12-14T13:15:23;8.70;99.90
23114;DHT22;11726;50.122;8.832;2023-12-14T13:17:54;8.60;99.90
23114;DHT22;11726;50.122;8.832;2023-12-14T13:20:21;8.60;99.90
23114;DHT22;11726;50.122;8.832;2023-12-14T13:22:48;8.60;99.90
23114;DHT22;11726;50.122;8.832;2023-12-14T13:25:16;8.50;99.90
23114;DHT22;11726;50.122;8.832;2023-12-14T13:27:46;8.50;99.90
23114;DHT22;11726;50.122;8.832;2023-12-14T13:30:13;8.50;99.90
23114;DHT22;11726;50.122;8.832;2023-12-14T13:32:44;8.40;99.90
23114;DHT22;11726;50.122;8.832;2023-12-14T13:35:11;8.50;99.90
23114;DHT22;11726;50.122;8.832;2023-12-14T13:37:38;8.40;99.90
23114;DHT22;11726;50.122;8.832;2023-12-14T13:40:07;8.30;99.90
23114;DHT22;11726;50.122;8.832;2023-12-14T13:42:36;8.40;99.90
23114;DHT22;11726;50.122;8.832;2023-12-14T13:45:16;8.40;99.90
23114;DHT22;11726;50.122;8.832;2023-12-14T13:47:42;8.50;99.90
23114;DHT22;11726;50.122;8.832;2023-12-14T13:50:09;8.60;99.90
23114;DHT22;11726;50.122;8.832;2023-12-14T13:52:36;8.50;99.90
23114;DHT22;11726;50.122;8.832;2023-12-14T13:55:03;8.50;99.90
23114;DHT22;11726;50.122;8.832;2023-12-14T13:57:29;8.60;99.90
23114;DHT22;11726;50.122;8.832;2023-12-14T13:59:56;8.60;99.90
23114;DHT22;11726;50.122;8.832;2023-12-14T14:02:23;8.60;99.90
23114;DHT22;11726;50.122;8.832;2023-12-14T14:04:51;8.60;99.90
23114;DHT22;11726;50.122;8.832;2023-12-14T14:07:18;8.50;99.90
23114;DHT22;11726;50.122;8.832;2023-12-14T14:09:45;8.60;99.90
23114;DHT22;11726;50.122;8.832;2023-12-14T14:12:12;8.50;99.90
23114;DHT22;11726;50.122;8.832;2023-12-14T14:14:38;8.60;99.90
23114;DHT22;11726;50.122;8.832;2023-12-14T14:17:05;8.60;99.90
23114;DHT22;11726;50.122;8.832;2023-12-14T14:19:33;8.50;99.90
23114;DHT22;11726;50.122;8.832;2023-12-14T14:22:00;8.50;99.90
23114;DHT22;11726;50.122;8.832;2023-12-14T14:24:27;8.40;99.90
23114;DHT22;11726;50.122;8.832;2023-12-14T14:26:54;8.30;99.90
23114;DHT22;11726;50.122;8.832;2023-12-14T14:29:21;8.20;99.90
23114;DHT22;11726;50.122;8.832;2023-12-14T14:31:48;8.20;99.90
23114;DHT22;11726;50.122;8.832;2023-12-14T14:34:14;8.20;99.90
23114;DHT22;11726;50.122;8.832;2023-12-14T14:36:41;8.20;99.90
23114;DHT22;11726;50.122;8.832;2023-12-14T14:39:08;8.20;99.90
23114;DHT22;11726;50.122;8.832;2023-12-14T14:41:35;8.20;99.90
23114;DHT22;11726;50.122;8.832;2023-12-14T14:44:01;8.20;99.90
23114;DHT22;11726;50.122;8.832;2023-12-14T14:46:28;8.10;99.90
23114;DHT22;11726;50.122;8.832;2023-12-14T14:48:55;8.10;99.90
23114;DHT22;11726;50.122;8.832;2023-12-14T14:51:21;8.00;99.90
23114;DHT22;11726;50.122;8.832;2023-12-14T14:53:48;8.00;99.90
23114;DHT22;11726;50.122;8.832;2023-12-14T14:56:15;8.00;99.90
23114;DHT22;11726;50.122;8.832;2023-12-14T14:58:42;8.00;99.90
23114;DHT22;11726;50.122;8.832;2023-12-14T15:01:12;7.90;99.90
23114;DHT22;11726;50.122;8.832;2023-12-14T15:03:39;7.90;99.90
23114;DHT22;11726;50.122;8.832;2023-12-14T15:06:05;7.90;99.90
23114;DHT22;11726;50.122;8.832;2023-12-14T15:08:32;7.90;99.90
23114;DHT22;11726;50.122;8.832;2023-12-14T15:10:59;7.80;99.90
23114;DHT22;11726;50.122;8.832;2023-12-14T15:13:25;7.80;99.90
23114;DHT22;11726;50.122;8.832;2023-12-14T15:15:52;7.80;99.90
23114;DHT22;11726;50.122;8.832;2023-12-14T15:18:19;7.80;99.90
23114;DHT22;11726;50.122;8.832;2023-12-14T15:20:46;7.80;99.90
23114;DHT22;11726;50.122;8.832;2023-12-14T15:23:15;7.70;99.90
23114;DHT22;11726;50.122;8.832;2023-12-14T15:25:41;7.60;99.90
23114;DHT22;11726;50.122;8.832;2023-12-14T15:28:08;7.60;99.90
23114;DHT22;11726;50.122;8.832;2023-12-14T15:30:35;7.60;99.90
23114;DHT22;11726;50.122;8.832;2023-12-14T15:33:01;7.60;99.90
23114;DHT22;11726;50.122;8.832;2023-12-14T15:35:29;7.60;99.90
23114;DHT22;11726;50.122;8.832;2023-12-14T15:37:56;7.60;99.90
23114;DHT22;11726;50.122;8.832;2023-12-14T15:40:23;7.60;99.90
23114;DHT22;11726;50.122;8.832;2023-12-14T15:42:50;7.60;99.90
23114;DHT22;11726;50.122;8.832;2023-12-14T15:45:18;7.50;99.90
23114;DHT22;11726;50.122;8.832;2023-12-14T15:47:46;7.50;99.90
23114;DHT22;11726;50.122;8.832;2023-12-14T15:50:13;7.50;99.90